East Worcester, NY (12064)

1:20 PM EDT on July 04, 2015 (GMT -0400)
Charlotte Valley | | Change Station
CLOSE
Current Station
Personal Weather Station
Location: Charlotteville, NY
Elevation: 1430 ft
Nearby Weather Stations

Elev 1430 ft 42.52 °N, 74.72 °W | Updated 9 minutes ago

Overcast
Overcast
67.8 °F
Feels Like 67.8 °F
N
1.1
Wind Variable Wind from West

Today
High -- | Low -- °F
--% Chance of Precip.
Yesterday
High -- | Low -- °F
Precip. -- in
5:26 AM 8:39 PM
Waning Gibbous, 91% visible
Pressure 29.99 in
Visibility 5.0 miles
Clouds Mostly Cloudy 700 ft
Overcast 1100 ft
Dew Point 62 °F
Humidity 81%
Rainfall 0.22 in
Snow Depth Not available.
UV 3 out of 12
Pollen 1.00 out of 12
Air Quality Not available.
Flu Activity Not available.
METAR KSCH 041650Z 00000KT 5SM -RA BKN007 OVC011 17/16 A2999

More Conditions Fewer Conditions

Pressure 29.99 in
Visibility 5.0 miles
Clouds Mostly Cloudy 700 ft
Overcast 1100 ft
Dew Point 62 °F
Humidity 81%
Rainfall 0.22 in
Snow Depth Not available.
UV 3 out of 12
Pollen 1.00 out of 12
Air Quality Not available.
Flu Activity Not available.
METAR KSCH 041650Z 00000KT 5SM -RA BKN007 OVC011 17/16 A2999

More Conditions Fewer Conditions

10-Day Weather Forecast

×

Almanac

Astronomy

Jul. 04, 2015 Rise Set
Actual Time
Civil Twilight
Nautical Twilight
Astronomical Twilight
Moon
Length of Visible Light
Length of Day
Tomorrow will be .
, % of the Moon is Illuminated

Today's Extremes

State Highs State Lows

Community

WunderPhotos

Upload Photos

1,835,005 photos uploaded!

WunderBlogs® & News

Nearby

Air Quality

  Air Quality AQ Index Pollutant
Not available.

Snow Depth

Station Depth Elevation

Earthquake Activity

City Distance Mag. Time & Date
Minimum magnitude displayed is 2.5.

Coastal Water Temperatures

Place Temperature

Stations

Nearby Weather Stations

Station Location Temp. Windchill Dew Point Humidity Wind Precip. Elev Updated Type